Time;durP1;ratioP1;P1;durP2;ratioP2;P2;SDS_P1;SDS_P2;PMS_P1;PMS_P2;Temp;Humidity;BMP_temperature;BMP_pressure;BME280_temperature;BME280_humidity;BME280_pressure;Samples;Min_cycle;Max_cycle;Signal;HPM_P1;HPM_P2
2022/10/13 00:00:44;;;;;;;5.10;1.85;;;12.90;99.90;;;12.24;100.00;101749.91;5098169;23;20446;-78
2022/10/13 00:02:45;;;;;;;3.35;2.17;;;13.00;99.90;;;12.27;100.00;101748.81;5072873;23;20016;-78
2022/10/13 00:04:45;;;;;;;4.40;2.08;;;13.00;99.90;;;12.29;100.00;101752.97;5098177;23;20005;-78
2022/10/13 00:06:46;;;;;;;5.10;1.67;;;13.10;99.90;;;12.32;100.00;101755.31;5097942;23;20350;-77
2022/10/13 00:08:47;;;;;;;4.85;1.75;;;13.00;99.90;;;12.30;100.00;101743.22;5098146;23;20005;-77
2022/10/13 00:10:49;;;;;;;6.72;1.90;;;13.10;99.90;;;12.39;100.00;101750.31;5072988;23;20093;-77
2022/10/13 00:12:51;;;;;;;5.68;1.55;;;13.10;99.90;;;12.36;100.00;101742.66;5073716;23;20054;-77
2022/10/13 00:14:52;;;;;;;6.30;1.25;;;13.10;99.90;;;12.35;100.00;101747.09;5049353;23;20006;-77
2022/10/13 00:16:52;;;;;;;2.97;1.25;;;13.10;99.90;;;12.36;100.00;101738.19;5073791;23;20016;-78
2022/10/13 00:18:53;;;;;;;7.68;2.00;;;13.10;99.90;;;12.37;100.00;101734.56;5073743;23;20006;-77
2022/10/13 00:20:54;;;;;;;5.28;2.03;;;13.10;99.90;;;12.30;100.00;101722.06;5099521;23;20005;-78
2022/10/13 00:22:55;;;;;;;4.53;1.92;;;13.00;99.90;;;12.26;100.00;101721.50;5073429;23;20371;-78
2022/10/13 00:24:56;;;;;;;6.13;2.20;;;13.00;99.90;;;12.24;100.00;101738.50;5049184;23;20002;-78
2022/10/13 00:26:57;;;;;;;7.28;2.17;;;13.00;99.90;;;12.18;100.00;101738.06;5073552;23;20005;-78
2022/10/13 00:28:58;;;;;;;4.93;1.92;;;13.00;99.90;;;12.14;100.00;101728.78;5100166;23;20006;-78
2022/10/13 00:30:59;;;;;;;3.90;1.73;;;12.90;99.90;;;12.13;100.00;101731.53;5073700;23;20105;-78
2022/10/13 00:33:00;;;;;;;4.70;2.33;;;12.90;99.90;;;12.12;100.00;101732.53;5073472;23;20029;-78
2022/10/13 00:35:01;;;;;;;3.78;2.10;;;12.90;99.90;;;12.06;100.00;101718.06;5098018;23;20036;-78
2022/10/13 00:37:02;;;;;;;5.00;1.90;;;12.80;99.90;;;12.10;100.00;101729.19;5099110;23;20056;-78
2022/10/13 00:39:03;;;;;;;4.53;1.63;;;12.90;99.90;;;12.10;100.00;101726.53;5073163;23;20017;-78
2022/10/13 00:41:05;;;;;;;3.63;1.80;;;12.80;99.90;;;12.06;100.00;101731.31;5099436;23;20013;-78
2022/10/13 00:43:24;;;;;;;7.68;2.00;;;12.80;99.90;;;12.07;100.00;101711.78;5073503;23;20006;-78
2022/10/13 00:45:31;;;;;;;6.13;2.40;;;12.80;99.90;;;12.06;100.00;101715.44;5075097;23;20434;-78
2022/10/13 00:47:43;;;;;;;4.18;1.70;;;12.80;99.90;;;12.06;100.00;101714.59;5074079;23;20060;-78
2022/10/13 00:49:44;;;;;;;4.75;1.92;;;12.80;99.90;;;12.05;100.00;101724.34;5074092;23;20029;-78
2022/10/13 00:51:48;;;;;;;3.15;2.28;;;12.80;99.90;;;12.08;100.00;101717.91;5073141;23;20463;-78
2022/10/13 00:53:50;;;;;;;6.47;2.03;;;12.80;99.90;;;12.05;100.00;101724.34;5073554;23;20061;-78
2022/10/13 00:55:52;;;;;;;3.25;2.00;;;12.80;99.90;;;12.09;100.00;101717.78;5073440;23;20009;-78
2022/10/13 00:58:00;;;;;;;6.47;1.85;;;12.80;99.90;;;12.12;100.00;101725.44;5073402;23;20088;-78
2022/10/13 01:00:03;;;;;;;4.10;2.05;;;12.80;99.90;;;12.09;100.00;101724.88;5099416;23;20033;-78
2022/10/13 01:02:04;;;;;;;3.45;2.05;;;12.80;99.90;;;12.12;100.00;101730.75;5073144;23;20017;-78
2022/10/13 01:04:05;;;;;;;6.25;1.98;;;12.90;99.90;;;12.15;100.00;101730.44;5073233;23;20010;-78
2022/10/13 01:06:07;;;;;;;5.22;1.83;;;12.90;99.90;;;12.16;100.00;101724.16;5098889;23;20032;-78
2022/10/13 01:08:09;;;;;;;8.32;2.55;;;12.90;99.90;;;12.21;100.00;101719.28;5073539;23;20077;-77
2022/10/13 01:10:11;;;;;;;4.88;1.95;;;12.90;99.90;;;12.24;100.00;101717.34;5073362;23;20009;-78
2022/10/13 01:12:54;;;;;;;5.75;2.28;;;13.00;99.90;;;12.26;100.00;101721.50;5073288;23;20385;-78
2022/10/13 01:15:20;;;;;;;3.47;2.13;;;12.90;99.90;;;12.27;100.00;101717.06;5092815;23;20016;-78
2022/10/13 01:17:58;;;;;;;6.05;2.00;;;13.00;99.90;;;12.32;100.00;101720.09;5099081;23;20010;-78
2022/10/13 01:20:55;;;;;;;3.63;1.45;;;13.00;99.90;;;12.33;100.00;101701.44;5052210;23;20037;-78
2022/10/13 01:23:24;;;;;;;;;;;13.00;99.90;;;12.34;100.00;101702.25;5098783;23;20006;-78
2022/10/13 01:25:40;;;;;;;5.88;2.28;;;13.10;99.90;;;12.38;100.00;101708.94;5098885;23;19905;-78
2022/10/13 01:28:04;;;;;;;4.40;1.98;;;13.10;99.90;;;12.39;100.00;101708.81;5099231;23;20040;-78
2022/10/13 01:30:08;;;;;;;8.88;2.60;;;13.10;99.90;;;12.40;100.00;101706.97;5027594;23;20066;-78
2022/10/13 01:32:47;;;;;;;6.72;1.80;;;13.10;99.90;;;12.37;100.00;101699.31;5073679;23;20010;-78
2022/10/13 01:35:09;;;;;;;5.63;2.00;;;13.10;99.90;;;12.38;100.00;101704.47;5075535;23;20439;-78
2022/10/13 01:37:30;;;;;;;5.00;2.25;;;13.10;99.90;;;12.34;100.00;101691.66;5073035;23;20002;-78
2022/10/13 01:40:01;;;;;;;4.75;1.90;;;13.10;99.90;;;12.36;100.00;101697.69;5050070;23;20022;-78
2022/10/13 01:42:13;;;;;;;5.25;1.92;;;13.10;99.90;;;12.33;100.00;101690.03;5097145;23;20045;-78
2022/10/13 01:44:25;;;;;;;5.40;1.90;;;13.10;99.90;;;12.28;100.00;101685.16;5074014;23;20006;-78
2022/10/13 01:46:31;;;;;;;5.45;1.92;;;13.00;99.90;;;12.30;100.00;101685.03;5048903;23;20036;-78
2022/10/13 01:48:35;;;;;;;3.55;1.85;;;13.00;99.90;;;12.29;100.00;101688.63;5073245;23;20434;-78
2022/10/13 01:50:37;;;;;;;6.95;2.08;;;13.00;99.90;;;12.31;100.00;101702.53;5073214;23;20057;-78
2022/10/13 01:52:39;;;;;;;5.97;2.35;;;13.00;99.90;;;12.22;100.00;101688.38;5048218;23;20344;-78
2022/10/13 01:54:40;;;;;;;6.57;2.45;;;13.00;99.90;;;12.23;100.00;101690.03;5072971;23;20068;-78
2022/10/13 01:56:41;;;;;;;5.82;2.28;;;13.00;99.90;;;12.24;100.00;101690.88;5073005;23;20406;-78
2022/10/13 01:58:43;;;;;;;9.35;2.10;;;13.00;99.90;;;12.23;100.00;101681.28;5073182;23;20005;-78
2022/10/13 02:01:00;;;;;;;6.07;2.92;;;13.00;99.90;;;12.27;100.00;101685.31;5073071;23;20005;-78
2022/10/13 02:03:40;;;;;;;6.40;2.78;;;13.00;99.90;;;12.27;100.00;101691.44;5099206;23;20005;-78
2022/10/13 02:06:03;;;;;;;5.10;1.95;;;13.00;99.90;;;12.29;100.00;101694.75;5098613;23;20430;-78
2022/10/13 02:08:17;;;;;;;3.67;2.00;;;13.00;99.90;;;12.29;100.00;101684.19;5076907;23;20014;-78
2022/10/13 02:10:55;;;;;;;6.75;3.20;;;13.00;99.90;;;12.32;100.00;101688.34;5073757;23;20009;-78
2022/10/13 02:13:03;;;;;;;6.72;1.90;;;13.00;99.90;;;12.28;100.00;101679.84;5051518;23;20003;-78
2022/10/13 02:15:08;;;;;;;6.03;2.17;;;13.00;99.90;;;12.25;100.00;101679.31;5073276;23;20308;-78
2022/10/13 02:17:09;;;;;;;5.57;2.30;;;13.00;99.90;;;12.24;100.00;101685.59;5073035;23;20088;-78
2022/10/13 02:19:16;;;;;;;3.72;1.98;;;13.00;99.90;;;12.21;100.00;101676.94;5072756;23;20473;-78
2022/10/13 02:21:17;;;;;;;3.75;2.00;;;12.90;99.90;;;12.22;100.00;101669.84;5073191;23;20014;-78
2022/10/13 02:23:18;;;;;;;5.03;1.90;;;13.00;99.90;;;12.18;100.00;101663.19;5072894;23;20013;-78
2022/10/13 02:25:19;;;;;;;4.43;1.92;;;12.90;99.90;;;12.19;100.00;101665.69;5072743;23;20522;-78
2022/10/13 02:27:22;;;;;;;5.57;2.40;;;12.90;99.90;;;12.19;100.00;101654.28;5072776;23;20006;-78
2022/10/13 02:29:22;;;;;;;3.85;2.40;;;12.90;99.90;;;12.21;100.00;101652.34;5072741;23;20002;-78
2022/10/13 02:31:24;;;;;;;8.55;2.67;;;12.90;99.90;;;12.23;100.00;101660.94;5072825;23;20002;-78
2022/10/13 02:33:24;;;;;;;5.47;2.58;;;12.90;99.90;;;12.18;100.00;101652.63;5098354;23;20070;-78
2022/10/13 02:35:25;;;;;;;4.20;1.80;;;12.90;99.90;;;12.20;100.00;101662.06;5098460;23;20442;-78
2022/10/13 02:37:26;;;;;;;7.22;2.30;;;12.90;99.90;;;12.24;100.00;101659.13;5072080;23;20006;-78
2022/10/13 02:39:27;;;;;;;10.90;3.13;;;12.90;99.90;;;12.25;100.00;101666.09;5098476;23;20013;-78
2022/10/13 02:41:28;;;;;;;9.40;2.30;;;13.00;99.90;;;12.23;100.00;101658.31;5098477;23;20005;-78
2022/10/13 02:43:29;;;;;;;7.18;2.78;;;13.00;99.90;;;12.17;100.00;101648.28;5047996;23;20010;-78
2022/10/13 02:45:30;;;;;;;5.03;2.45;;;13.00;99.90;;;12.21;100.00;101641.75;5072872;23;20010;-78
2022/10/13 02:47:31;;;;;;;5.75;2.90;;;13.00;99.90;;;12.28;100.00;101649.91;5072721;23;20069;-78
2022/10/13 02:49:32;;;;;;;6.18;2.60;;;13.00;99.90;;;12.26;100.00;101642.13;5096638;23;20009;-78
2022/10/13 02:51:33;;;;;;;7.97;3.08;;;13.00;99.90;;;12.29;100.00;101651.59;5098313;23;20080;-78
2022/10/13 02:53:34;;;;;;;7.05;2.53;;;13.00;99.90;;;12.24;100.00;101635.34;5098747;23;20005;-78
2022/10/13 02:55:34;;;;;;;8.20;2.75;;;13.00;99.90;;;12.24;100.00;101632.69;5072730;23;20017;-78
2022/10/13 02:57:35;;;;;;;5.00;2.70;;;13.00;99.90;;;12.28;100.00;101639.34;5098406;23;20010;-78
2022/10/13 02:59:36;;;;;;;9.10;3.53;;;13.00;99.90;;;12.25;100.00;101629.03;5098567;23;20005;-78
2022/10/13 03:01:40;;;;;;;5.75;2.70;;;13.00;99.90;;;12.28;100.00;101629.59;5098342;23;20438;-78
2022/10/13 03:03:41;;;;;;;4.90;2.85;;;13.00;99.90;;;12.28;100.00;101607.59;5098100;23;20375;-78
2022/10/13 03:05:44;;;;;;;7.75;3.28;;;13.00;99.90;;;12.34;100.00;101630.81;5072401;23;20077;-78
2022/10/13 03:07:44;;;;;;;6.93;3.30;;;13.00;99.90;;;12.32;100.00;101630.97;5072135;23;20010;-78
2022/10/13 03:09:45;;;;;;;10.80;3.53;;;13.00;99.90;;;12.27;100.00;101621.81;5098442;23;20438;-78
2022/10/13 03:11:46;;;;;;;7.22;3.20;;;13.00;99.90;;;12.29;100.00;101625.13;5048123;23;20006;-78
2022/10/13 03:13:47;;;;;;;7.25;3.15;;;13.00;99.90;;;12.29;100.00;101625.97;5072512;23;20423;-78
2022/10/13 03:15:48;;;;;;;7.07;3.20;;;13.00;99.90;;;12.31;100.00;101625.81;5072443;23;20010;-76
2022/10/13 03:17:49;;;;;;;4.32;2.97;;;13.00;99.90;;;12.30;100.00;101627.66;5072345;23;20010;-76
2022/10/13 03:19:50;;;;;;;9.05;3.05;;;13.00;99.90;;;12.32;100.00;101632.78;5096835;23;20018;-76
2022/10/13 03:21:51;;;;;;;6.88;3.22;;;13.00;99.90;;;12.32;100.00;101623.03;5097955;23;20311;-76
2022/10/13 03:23:52;;;;;;;9.88;3.50;;;13.10;99.90;;;12.32;100.00;101622.22;5098466;23;20005;-76
2022/10/13 03:25:54;;;;;;;4.25;2.75;;;13.00;99.90;;;12.33;100.00;101611.50;5098131;23;20080;-79
2022/10/13 03:27:55;;;;;;;6.35;2.97;;;13.00;99.90;;;12.30;100.00;101595.06;5072234;23;20010;-79
2022/10/13 03:29:56;;;;;;;7.47;3.08;;;13.10;99.90;;;12.37;100.00;101606.72;5098147;23;20342;-79
2022/10/13 03:31:57;;;;;;;9.65;3.38;;;13.10;99.90;;;12.38;100.00;101598.66;5098065;23;20002;-79
2022/10/13 03:33:57;;;;;;;5.95;3.00;;;13.10;99.90;;;12.42;100.00;101599.19;5071748;23;20036;-79
2022/10/13 03:36:00;;;;;;;9.18;3.60;;;13.10;99.90;;;12.45;100.00;101596.25;5097874;23;20342;-79
2022/10/13 03:38:01;;;;;;;5.97;3.33;;;13.20;99.90;;;12.46;100.00;101590.81;5072229;23;20014;-79
2022/10/13 03:40:03;;;;;;;8.35;3.45;;;13.20;99.90;;;12.55;100.00;101599.66;5072353;23;20070;-79
2022/10/13 03:42:04;;;;;;;7.10;3.95;;;13.30;99.90;;;12.56;100.00;101591.59;5073796;23;20090;-79
2022/10/13 03:44:06;;;;;;;9.43;3.40;;;13.30;99.90;;;12.61;100.00;101583.19;5072366;23;20093;-79
2022/10/13 03:46:09;;;;;;;8.90;3.78;;;13.30;99.90;;;12.57;100.00;101576.53;5073405;23;20006;-79
2022/10/13 03:48:10;;;;;;;10.00;4.50;;;13.30;99.90;;;12.61;100.00;101580.53;5074386;23;20058;-79
2022/10/13 03:50:11;;;;;;;8.13;4.47;;;13.30;99.90;;;12.60;100.00;101565.66;5075401;23;20006;-79
2022/10/13 03:52:12;;;;;;;5.68;3.22;;;13.40;99.90;;;12.64;100.00;101562.56;5073339;23;20013;-79
2022/10/13 03:54:13;;;;;;;7.60;3.63;;;13.40;99.90;;;12.66;100.00;101562.41;5073929;23;20002;-79
2022/10/13 03:56:22;;;;;;;5.70;3.63;;;13.40;99.90;;;12.69;100.00;101559.47;5073526;23;20006;-79
2022/10/13 03:58:24;;;;;;;7.15;3.83;;;13.40;99.90;;;12.69;100.00;101562.94;5073897;23;20002;-79
2022/10/13 04:00:25;;;;;;;6.60;3.20;;;13.40;99.90;;;12.71;100.00;101552.22;5073971;23;20006;-79
2022/10/13 04:02:26;;;;;;;6.90;3.80;;;13.50;99.90;;;12.75;100.00;101553.59;5073819;23;20370;-79
2022/10/13 04:04:27;;;;;;;10.05;3.97;;;13.50;99.90;;;12.78;100.00;101551.44;5075118;23;20002;-79
2022/10/13 04:06:29;;;;;;;11.00;5.15;;;13.50;99.90;;;12.81;100.00;101562.75;5075078;23;20013;-77
2022/10/13 04:08:32;;;;;;;7.07;3.47;;;13.50;99.90;;;12.77;100.00;101549.81;5075259;23;20073;-77
2022/10/13 04:10:34;;;;;;;10.43;3.17;;;13.50;99.90;;;12.80;100.00;101551.31;5075318;23;20406;-77
2022/10/13 04:12:34;;;;;;;10.65;3.92;;;13.50;99.90;;;12.82;100.00;101551.97;5073825;23;20332;-77
2022/10/13 04:14:35;;;;;;;6.38;3.05;;;13.60;99.90;;;12.87;100.00;101540.94;5074950;23;20013;-77
2022/10/13 04:16:38;;;;;;;12.27;4.25;;;13.60;99.90;;;12.89;100.00;101539.81;5075152;23;20010;-77
2022/10/13 04:18:39;;;;;;;7.07;3.25;;;13.60;99.90;;;12.94;100.00;101537.53;5073907;23;20041;-77
2022/10/13 04:20:40;;;;;;;5.15;3.08;;;13.70;99.90;;;13.01;100.00;101533.31;5073694;23;20021;-77
2022/10/13 04:22:41;;;;;;;6.15;4.43;;;13.70;99.90;;;13.06;100.00;101512.47;5073303;23;20010;-77
2022/10/13 04:24:42;;;;;;;10.48;4.53;;;13.80;99.90;;;13.08;100.00;101513.19;5097943;23;20036;-77
2022/10/13 04:26:43;;;;;;;7.47;3.13;;;13.80;99.90;;;13.12;100.00;101514.53;5072943;23;20010;-77
2022/10/13 04:28:46;;;;;;;6.13;3.10;;;13.80;99.90;;;13.12;100.00;101525.13;5073631;23;20002;-76
2022/10/13 04:30:47;;;;;;;7.18;3.00;;;13.80;99.90;;;13.13;100.00;101541.88;5070585;23;20013;-77
2022/10/13 04:32:48;;;;;;;9.80;2.97;;;13.90;99.90;;;13.14;100.00;101554.16;5072675;23;20006;-77
2022/10/13 04:34:49;;;;;;;7.10;3.22;;;13.80;99.90;;;13.13;100.00;101553.31;5074408;23;20010;-75
2022/10/13 04:36:50;;;;;;;5.97;2.95;;;13.90;99.90;;;13.11;100.00;101538.56;5048306;23;20089;-76
2022/10/13 04:38:53;;;;;;;10.48;4.03;;;13.90;99.90;;;13.14;100.00;101536.41;5095081;23;20469;-77
2022/10/13 04:40:54;;;;;;;9.65;4.60;;;13.90;99.90;;;13.22;100.00;101551.56;5072900;23;20069;-77
2022/10/13 04:42:55;;;;;;;5.57;2.63;;;13.90;99.90;;;13.21;100.00;101550.72;5097653;23;20013;-77
2022/10/13 04:44:55;;;;;;;4.53;2.60;;;14.00;99.90;;;13.22;100.00;101554.19;5098427;23;20449;-77
2022/10/13 04:46:57;;;;;;;10.00;3.55;;;13.90;99.90;;;13.30;100.00;101547.16;5049048;23;20017;-77
2022/10/13 04:48:58;;;;;;;6.97;3.35;;;14.00;99.90;;;13.29;100.00;101553.41;5073685;23;20002;-78
2022/10/13 04:51:06;;;;;;;6.75;3.60;;;14.00;99.90;;;13.28;100.00;101562.38;5072858;23;20013;-78
2022/10/13 04:53:07;;;;;;;6.57;3.60;;;14.00;99.90;;;13.31;100.00;101561.22;5073622;23;20041;-78
2022/10/13 04:55:08;;;;;;;8.23;3.47;;;14.00;99.90;;;13.32;100.00;101552.28;5099657;23;20060;-78
2022/10/13 04:57:08;;;;;;;7.90;3.10;;;14.00;99.90;;;13.34;100.00;101554.78;5097440;23;20481;-77
2022/10/13 04:59:09;;;;;;;6.45;3.67;;;14.00;99.90;;;13.40;100.00;101554.16;5099286;23;20005;-77
2022/10/13 05:01:18;;;;;;;8.63;4.07;;;14.10;99.90;;;13.42;100.00;101536.28;5099198;23;20386;-78
2022/10/13 05:03:19;;;;;;;8.23;3.42;;;14.10;99.90;;;13.43;100.00;101537.97;5099314;23;20005;-78
2022/10/13 05:05:20;;;;;;;9.60;3.22;;;14.10;99.90;;;13.38;100.00;101533.09;5048631;23;20351;-78
2022/10/13 05:07:20;;;;;;;8.60;4.07;;;14.10;99.90;;;13.42;100.00;101526.53;5048361;23;20010;-78
2022/10/13 05:09:21;;;;;;;7.20;3.25;;;14.10;99.90;;;13.42;100.00;101533.63;5073149;23;20006;-78
2022/10/13 05:11:24;;;;;;;8.60;3.38;;;14.20;99.90;;;13.48;100.00;101538.31;5099161;23;20457;-78
2022/10/13 05:13:27;;;;;;;14.32;4.13;;;14.20;99.90;;;13.46;100.00;101533.19;5048816;23;20471;-78
2022/10/13 05:15:27;;;;;;;11.43;4.00;;;14.20;99.90;;;13.52;100.00;101542.34;5097814;23;20088;-77
2022/10/13 05:17:30;;;;;;;7.25;3.65;;;14.30;99.90;;;13.49;100.00;101532.88;5099062;23;20060;-78
2022/10/13 05:19:31;;;;;;;11.02;4.15;;;14.20;99.90;;;13.59;100.00;101540.72;5073572;23;20426;-77
2022/10/13 05:21:32;;;;;;;7.50;4.25;;;14.30;99.90;;;13.59;100.00;101552.16;5048498;23;20007;-77
2022/10/13 05:23:33;;;;;;;7.07;3.80;;;14.30;99.90;;;13.57;100.00;101548.00;5099013;23;20010;-77
2022/10/13 05:25:35;;;;;;;11.27;4.40;;;14.30;99.90;;;13.60;100.00;101545.03;5073071;23;20034;-77
2022/10/13 05:27:36;;;;;;;9.65;5.03;;;14.30;99.90;;;13.62;100.00;101537.78;5099023;23;20509;-77
2022/10/13 05:29:38;;;;;;;9.55;4.00;;;14.30;99.90;;;13.63;100.00;101534.13;5098999;23;20005;-77
2022/10/13 05:31:40;;;;;;;11.10;4.65;;;14.30;99.90;;;13.63;100.00;101539.41;5072706;23;20001;-77
2022/10/13 05:33:42;;;;;;;12.52;4.22;;;14.30;99.90;;;13.66;100.00;101534.63;5073135;23;20013;-78
2022/10/13 05:35:42;;;;;;;12.70;4.70;;;14.40;99.90;;;13.65;100.00;101516.25;5073080;23;20399;-78
2022/10/13 05:37:43;;;;;;;9.27;4.05;;;14.40;99.90;;;13.66;100.00;101510.78;5072623;23;20010;-78
2022/10/13 05:39:44;;;;;;;9.98;4.30;;;14.40;99.90;;;13.62;100.00;101504.13;5074515;23;20435;-77
2022/10/13 05:41:45;;;;;;;9.13;3.78;;;14.40;99.90;;;13.66;100.00;101523.19;5073257;23;20061;-78
2022/10/13 05:43:47;;;;;;;12.50;4.30;;;14.40;99.90;;;13.65;100.00;101521.56;5074440;23;20446;-78
2022/10/13 05:45:47;;;;;;;9.02;3.97;;;14.40;99.90;;;13.63;100.00;101520.84;5074402;23;20334;-78
2022/10/13 05:47:48;;;;;;;9.60;4.47;;;14.40;99.90;;;13.64;100.00;101527.84;5048463;23;20006;-78
2022/10/13 05:49:49;;;;;;;12.52;4.35;;;14.30;99.90;;;13.65;100.00;101540.91;5072707;23;20006;-77
2022/10/13 05:51:56;;;;;;;11.20;4.65;;;14.30;99.90;;;13.61;100.00;101530.78;5074072;23;20010;-77
2022/10/13 05:54:07;;;;;;;7.90;3.90;;;14.30;99.90;;;13.66;100.00;101533.78;5072771;23;20049;-78
2022/10/13 05:56:16;;;;;;;7.57;4.00;;;14.40;99.90;;;13.65;100.00;101526.84;5072542;23;20014;-78
2022/10/13 05:58:18;;;;;;;8.82;4.22;;;14.30;99.90;;;13.64;100.00;101525.19;5074388;23;20006;-77
2022/10/13 06:00:19;;;;;;;10.68;4.20;;;14.30;99.90;;;13.62;100.00;101514.72;5074573;23;20016;-78
2022/10/13 06:02:25;;;;;;;8.95;4.25;;;14.30;99.90;;;13.63;100.00;101521.69;5072771;23;20037;-78
2022/10/13 06:04:34;;;;;;;10.55;4.55;;;14.30;99.90;;;13.60;100.00;101503.44;5074263;23;20453;-78
2022/10/13 06:06:36;;;;;;;8.60;4.22;;;14.40;99.90;;;13.61;100.00;101504.28;5072793;23;20058;-77
2022/10/13 06:08:37;;;;;;;8.73;4.38;;;14.30;99.90;;;13.64;100.00;101515.41;5074088;23;20022;-78
2022/10/13 06:10:40;;;;;;;11.75;4.45;;;14.40;99.90;;;13.63;100.00;101497.00;5074329;23;20009;-77
2022/10/13 06:12:41;;;;;;;11.60;4.30;;;14.30;99.90;;;13.49;100.00;101477.22;5072875;23;20095;-77
2022/10/13 06:14:42;;;;;;;13.50;5.45;;;14.40;99.90;;;13.69;100.00;101507.81;5072847;23;20009;-77
2022/10/13 06:16:42;;;;;;;9.73;4.50;;;14.40;99.90;;;13.66;100.00;101501.97;5074485;23;20006;-77
2022/10/13 06:18:43;;;;;;;10.50;4.30;;;14.40;99.90;;;13.73;100.00;101508.34;5074527;23;20415;-78
2022/10/13 06:20:44;;;;;;;16.20;5.18;;;14.50;99.90;;;13.74;100.00;101502.84;5074142;23;20009;-77
2022/10/13 06:22:47;;;;;;;14.07;5.30;;;14.50;99.90;;;13.73;100.00;101503.88;5074428;23;20497;-78
2022/10/13 06:24:48;;;;;;;9.30;4.80;;;14.50;99.90;;;13.76;100.00;101505.38;5072635;23;20588;-77
2022/10/13 06:26:49;;;;;;;13.52;4.95;;;14.50;99.90;;;13.80;100.00;101493.44;5074183;23;20006;-77
2022/10/13 06:28:49;;;;;;;11.85;4.70;;;14.50;99.90;;;13.81;100.00;101484.50;5072611;23;20005;-78
2022/10/13 06:30:55;;;;;;;9.90;4.43;;;14.50;99.90;;;13.82;100.00;101464.97;5072579;23;20026;-77
2022/10/13 06:32:56;;;;;;;10.95;4.35;;;14.50;99.90;;;13.83;100.00;101461.28;5074170;23;20028;-78
2022/10/13 06:34:57;;;;;;;11.60;4.85;;;14.50;99.90;;;13.83;100.00;101445.38;5074099;23;20010;-78
2022/10/13 06:36:58;;;;;;;7.70;4.00;;;14.60;99.90;;;13.86;100.00;101439.75;5073865;23;20064;-77
2022/10/13 06:38:59;;;;;;;9.30;4.47;;;14.60;99.90;;;13.92;100.00;101438.31;5096494;23;20093;-78
2022/10/13 06:41:02;;;;;;;10.23;4.28;;;14.60;99.90;;;13.84;100.00;101424.03;5072830;23;20339;-78
2022/10/13 06:43:03;;;;;;;12.35;4.18;;;14.60;99.90;;;13.94;100.00;101436.31;5072660;23;20013;-77
2022/10/13 06:45:05;;;;;;;7.95;3.88;;;14.70;99.90;;;13.98;100.00;101445.63;5072509;23;20494;-77
2022/10/13 06:47:06;;;;;;;14.70;4.50;;;14.70;99.90;;;14.02;100.00;101442.47;5048532;23;20014;-78
2022/10/13 06:49:09;;;;;;;9.93;4.15;;;14.70;99.90;;;14.09;100.00;101447.97;5098460;23;20315;-77
2022/10/13 06:51:11;;;;;;;9.50;3.78;;;14.80;99.90;;;14.08;100.00;101459.56;5098095;23;20002;-77
2022/10/13 06:53:12;;;;;;;10.57;3.92;;;14.80;99.90;;;14.13;100.00;101443.97;5072682;23;20001;-78
2022/10/13 06:55:13;;;;;;;7.93;3.50;;;14.80;99.90;;;14.19;100.00;101446.00;5098398;23;20450;-77
2022/10/13 06:57:14;;;;;;;9.63;3.78;;;14.90;99.90;;;14.14;100.00;101433.22;5098368;23;20056;-77
2022/10/13 06:59:15;;;;;;;10.45;4.60;;;14.90;99.90;;;14.19;100.00;101441.53;5072509;23;20351;-78
2022/10/13 07:01:16;;;;;;;6.95;3.47;;;14.90;99.90;;;14.24;100.00;101455.16;5072528;23;20005;-78
2022/10/13 07:03:17;;;;;;;7.18;3.90;;;14.90;99.90;;;14.21;100.00;101447.50;5072098;23;20010;-78
2022/10/13 07:05:18;;;;;;;6.57;3.28;;;15.00;99.90;;;14.22;100.00;101446.50;5096818;23;20006;-77
2022/10/13 07:07:19;;;;;;;8.90;3.42;;;15.00;99.90;;;14.22;100.00;101446.50;5072156;23;20034;-77
2022/10/13 07:09:20;;;;;;;10.07;4.03;;;15.00;99.90;;;14.26;100.00;101453.16;5072514;23;20010;-78
2022/10/13 07:11:21;;;;;;;8.93;3.78;;;15.00;99.90;;;14.32;100.00;101444.56;5072485;23;20366;-78
2022/10/13 07:13:22;;;;;;;6.57;3.28;;;15.00;99.90;;;14.34;100.00;101449.72;5098297;23;20002;-78
2022/10/13 07:15:23;;;;;;;12.27;3.50;;;15.10;99.90;;;14.32;100.00;101443.72;5098250;23;20010;-78
2022/10/13 07:17:24;;;;;;;14.40;3.65;;;15.00;99.90;;;14.34;100.00;101444.41;5072183;23;20005;-78
2022/10/13 07:19:25;;;;;;;11.45;5.55;;;15.10;99.90;;;14.34;100.00;101434.63;5046967;23;20006;-78
2022/10/13 07:21:26;;;;;;;11.93;4.25;;;15.10;99.90;;;14.38;100.00;101425.34;5098295;23;20009;-78
2022/10/13 07:23:28;;;;;;;8.55;3.22;;;15.10;99.90;;;14.43;100.00;101418.69;5098879;23;20076;-78
2022/10/13 07:25:29;;;;;;;10.75;4.22;;;15.10;99.90;;;14.46;100.00;101415.72;5099490;23;20002;-78
2022/10/13 07:27:30;;;;;;;10.48;3.80;;;15.20;99.90;;;14.50;100.00;101419.72;5074259;23;20350;-78
2022/10/13 07:29:31;;;;;;;9.95;3.90;;;15.20;99.90;;;14.48;100.00;101419.06;5099700;23;20005;-78
2022/10/13 07:31:32;;;;;;;7.88;3.53;;;15.20;99.90;;;14.55;100.00;101433.31;5098246;23;20012;-78
2022/10/13 07:33:32;;;;;;;7.45;4.03;;;15.20;99.90;;;14.57;100.00;101420.72;5099051;23;20025;-78
2022/10/13 07:35:37;;;;;;;9.38;4.07;;;15.30;99.90;;;14.65;100.00;101420.72;5073321;23;20410;-77
2022/10/13 07:37:38;;;;;;;13.32;3.95;;;15.30;99.90;;;14.69;100.00;101406.13;5098616;23;20043;-77
2022/10/13 07:39:39;;;;;;;10.68;4.07;;;15.40;99.90;;;14.79;100.00;101412.06;5073397;23;20056;-77
2022/10/13 07:41:40;;;;;;;13.38;4.32;;;15.50;99.90;;;14.89;100.00;101418.88;5099138;23;20350;-77
2022/10/13 07:43:41;;;;;;;14.30;4.47;;;15.60;99.90;;;14.97;100.00;101426.00;5099416;23;20009;-77
2022/10/13 07:45:42;;;;;;;7.82;3.80;;;15.60;99.90;;;15.03;100.00;101422.69;5073792;23;20009;-78
2022/10/13 07:47:43;;;;;;;17.15;5.20;;;15.70;99.90;;;15.05;100.00;101428.69;5074243;23;20010;-77
2022/10/13 07:49:43;;;;;;;12.25;3.83;;;15.80;99.90;;;15.15;100.00;101445.25;5073844;23;20006;-77
2022/10/13 07:51:44;;;;;;;10.27;4.20;;;15.90;99.90;;;15.15;100.00;101444.41;5099417;23;20370;-78
2022/10/13 07:53:46;;;;;;;12.75;5.15;;;15.90;99.90;;;15.16;100.00;101446.91;5074222;23;20002;-78
2022/10/13 07:55:46;;;;;;;14.55;4.63;;;15.90;99.90;;;15.19;100.00;101449.25;5073919;23;20009;-77
2022/10/13 07:57:47;;;;;;;9.75;4.50;;;15.90;99.90;;;15.18;100.00;101433.44;5073815;23;20013;-77
2022/10/13 07:59:49;;;;;;;13.25;4.45;;;15.90;99.90;;;15.19;100.00;101435.13;5073765;23;20092;-77
2022/10/13 08:01:49;;;;;;;10.93;4.72;;;15.90;99.90;;;15.20;100.00;101436.78;5049517;23;20065;-77
2022/10/13 08:03:55;;;;;;;13.10;4.05;;;15.90;99.90;;;15.18;100.00;101434.28;5098119;23;20013;-77
2022/10/13 08:05:59;;;;;;;12.82;4.75;;;15.90;99.90;;;15.20;100.00;101426.97;5048834;23;20086;-77
2022/10/13 08:08:00;;;;;;;9.10;4.68;;;15.90;99.90;;;15.23;100.00;101417.84;5049144;23;20015;-76
2022/10/13 08:10:01;;;;;;;14.70;4.38;;;16.00;99.90;;;15.27;100.00;101421.81;5099729;23;20016;-77
2022/10/13 08:12:02;;;;;;;11.05;5.50;;;16.00;99.90;;;15.31;100.00;101423.13;5099651;23;20379;-77
2022/10/13 08:14:03;;;;;;;12.77;4.88;;;16.00;99.90;;;15.33;100.00;101424.63;5072877;23;20053;-77
2022/10/13 08:16:04;;;;;;;10.25;5.20;;;16.10;99.90;;;15.46;100.00;101424.09;5073378;23;20010;-77
2022/10/13 08:18:05;;;;;;;11.30;4.78;;;16.10;99.90;;;15.50;100.00;101418.28;5073335;23;20037;-76
2022/10/13 08:20:07;;;;;;;13.63;5.03;;;16.20;99.90;;;15.54;100.00;101418.75;5073265;23;20010;-76
2022/10/13 08:22:10;;;;;;;8.48;4.43;;;16.20;99.90;;;15.55;100.00;101419.59;5073677;23;20103;-77
2022/10/13 08:24:14;;;;;;;11.15;4.82;;;16.30;99.90;;;15.59;100.00;101403.13;5099502;23;20037;-77
2022/10/13 08:26:21;;;;;;;8.30;4.25;;;16.30;99.90;;;15.65;100.00;101413.06;5073595;23;20009;-77
2022/10/13 08:28:29;;;;;;;7.75;4.50;;;16.30;99.90;;;15.63;100.00;101416.91;5099510;23;20021;-76